Time;durP1;ratioP1;P1;durP2;ratioP2;P2;SDS_P1;SDS_P2;PMS_P1;PMS_P2;Temp;Humidity;BMP_temperature;BMP_pressure;BME280_temperature;BME280_humidity;BME280_pressure;Samples;Min_cycle;Max_cycle;Signal;HPM_P1;HPM_P2
2022/09/12 00:01:24;;;;;;;49.15;46.13;;;;;;;20.38;54.33;101603.16;5047265;28;20044;-74
2022/09/12 00:03:52;;;;;;;51.03;47.90;;;;;;;20.35;54.28;101601.81;5048763;28;20040;-73
2022/09/12 00:06:21;;;;;;;49.03;46.03;;;;;;;20.33;54.25;101601.28;5050546;28;20059;-75
2022/09/12 00:08:47;;;;;;;50.22;46.85;;;;;;;20.32;54.63;101596.91;5042672;28;20068;-74
2022/09/12 00:11:13;;;;;;;50.45;47.33;;;;;;;20.29;54.29;101603.78;5049873;28;20491;-74
2022/09/12 00:13:40;;;;;;;50.40;47.08;;;;;;;20.28;54.57;101598.59;5048386;28;20037;-73
2022/09/12 00:16:06;;;;;;;48.28;45.15;;;;;;;20.26;54.64;101598.88;5048596;28;20456;-73
2022/09/12 00:18:33;;;;;;;50.13;47.00;;;;;;;20.23;54.29;101587.66;5049823;28;20503;-72
2022/09/12 00:21:03;;;;;;;46.65;43.90;;;;;;;20.22;54.65;101592.31;5047437;28;20029;-73
2022/09/12 00:23:29;;;;;;;50.15;46.90;;;;;;;20.20;54.36;101590.97;5043592;28;20034;-72
2022/09/12 00:25:54;;;;;;;48.58;45.35;;;;;;;20.18;54.74;101590.44;5037982;28;20037;-72
2022/09/12 00:28:20;;;;;;;48.70;45.90;;;;;;;20.15;54.32;101591.81;5050188;28;20073;-73
2022/09/12 00:30:48;;;;;;;48.38;45.08;;;;;;;20.13;54.53;101591.28;5040571;28;20048;-72
2022/09/12 00:33:15;;;;;;;;;;;;;;;20.11;54.18;101585.28;5045796;28;20032;-73
2022/09/12 00:35:45;;;;;;;48.25;44.97;;;;;;;20.09;54.61;101587.50;5033161;28;19909;-73
2022/09/12 00:38:15;;;;;;;48.05;44.85;;;;;;;20.06;54.37;101579.84;5041204;28;20033;-72
2022/09/12 00:40:41;;;;;;;47.83;44.55;;;;;;;20.04;54.33;101574.63;5041436;28;20033;-73
2022/09/12 00:43:28;;;;;;;47.25;44.25;;;;;;;20.03;54.72;101570.28;5047386;28;20065;-71
2022/09/12 00:45:56;;;;;;;48.67;45.47;;;;;;;20.01;54.82;101575.22;5054179;28;20431;-74
2022/09/12 00:48:30;;;;;;;45.78;42.78;;;;;;;20.00;54.43;101578.25;5034949;28;20056;-74
2022/09/12 00:50:55;;;;;;;46.67;43.67;;;;;;;19.97;54.58;101568.66;5034477;28;20029;-73
2022/09/12 00:53:21;;;;;;;47.95;45.05;;;;;;;19.96;54.76;101568.94;5039206;28;20040;-74
2022/09/12 00:55:50;;;;;;;46.25;43.15;;;;;;;19.95;54.33;101564.56;5066421;28;20044;-73
2022/09/12 00:58:21;;;;;;;;;;;;;;;19.93;54.57;101555.81;5035107;28;20074;-75
2022/09/12 01:00:46;;;;;;;46.83;43.88;;;;;;;19.89;54.30;101553.63;5050269;28;19919;-76
2022/09/12 01:03:14;;;;;;;46.63;43.53;;;;;;;19.87;54.59;101552.28;5043924;28;20030;-73
2022/09/12 01:05:58;;;;;;;47.40;43.85;;;;;;;19.86;54.47;101547.91;5040692;28;20082;-73
2022/09/12 01:08:25;;;;;;;46.47;43.65;;;;;;;19.84;54.66;101552.88;5052249;28;20040;-74
2022/09/12 01:10:51;;;;;;;46.38;43.47;;;;;;;19.82;54.46;101546.84;5053574;28;20071;-73
2022/09/12 01:13:16;;;;;;;46.75;43.90;;;;;;;19.80;54.62;101552.59;5043614;28;20128;-72
2022/09/12 01:15:42;;;;;;;45.22;42.42;;;;;;;19.79;54.57;101559.19;5035696;28;20104;-77
2022/09/12 01:18:19;;;;;;;47.47;44.30;;;;;;;19.78;54.72;101549.34;5052836;28;20120;-72
2022/09/12 01:21:03;;;;;;;47.17;44.20;;;;;;;19.77;54.35;101557.84;5053510;28;20091;-73
2022/09/12 01:23:58;;;;;;;46.10;43.17;;;;;;;19.74;54.63;101547.44;5050903;28;20388;-72
2022/09/12 01:26:44;;;;;;;45.83;42.85;;;;;;;19.73;54.38;101556.75;5034244;28;20632;-74
2022/09/12 01:29:19;;;;;;;46.10;42.85;;;;;;;19.70;54.24;101546.38;5033906;28;20029;-74
2022/09/12 01:31:51;;;;;;;45.65;42.75;;;;;;;19.68;54.40;101549.41;5044975;28;20025;-73
2022/09/12 01:34:21;;;;;;;46.22;43.25;;;;;;;19.67;54.57;101537.63;5051836;28;20041;-74
2022/09/12 01:36:51;;;;;;;47.33;44.38;;;;;;;19.65;54.56;101536.22;5053178;28;20488;-72
2022/09/12 01:39:35;;;;;;;45.60;42.60;;;;;;;19.64;54.64;101537.34;5052302;28;20381;-73
2022/09/12 01:42:24;;;;;;;49.10;45.42;;;;;;;19.62;54.39;101531.31;5044020;28;20465;-72
2022/09/12 01:45:02;;;;;;;47.22;44.13;;;;;;;19.60;54.56;101534.34;5037711;28;20036;-73
2022/09/12 01:47:39;;;;;;;47.00;44.08;;;;;;;19.58;54.23;101533.81;5032334;28;20222;-73
2022/09/12 01:50:07;;;;;;;46.72;43.47;;;;;;;19.57;54.02;101523.13;5033549;28;20029;-73
2022/09/12 01:52:49;;;;;;;46.67;43.50;;;;;;;19.56;54.23;101524.25;5044804;28;20045;-74
2022/09/12 01:55:23;;;;;;;42.70;39.97;;;;;;;19.52;54.25;101518.50;5051369;28;20103;-72
2022/09/12 01:57:55;;;;;;;46.08;43.17;;;;;;;19.52;54.47;101520.44;5051926;28;20079;-73
2022/09/12 02:00:20;;;;;;;44.60;41.65;;;;;;;19.51;54.22;101516.06;5048538;28;20044;-73
2022/09/12 02:02:56;;;;;;;49.10;45.47;;;;;;;19.49;54.74;101510.03;5033467;28;20033;-72
2022/09/12 02:05:33;;;;;;;47.42;44.22;;;;;;;19.47;54.71;101507.56;5052037;28;20025;-73
2022/09/12 02:08:09;;;;;;;48.08;45.03;;;;;;;19.45;54.47;101505.13;5052236;28;20029;-71
2022/09/12 02:11:08;;;;;;;45.72;42.85;;;;;;;19.43;54.38;101510.06;5051215;28;20112;-74
2022/09/12 02:14:14;;;;;;;45.83;43.00;;;;;;;19.42;54.29;101502.13;5044409;28;20047;-74
2022/09/12 02:16:45;;;;;;;45.10;42.15;;;;;;;19.39;54.21;101498.03;4995469;28;20404;-73
2022/09/12 02:19:21;;;;;;;46.30;43.08;;;;;;;19.38;54.57;101507.38;5032893;28;20029;-73
2022/09/12 02:21:53;;;;;;;44.97;42.17;;;;;;;19.36;54.75;101508.75;5043673;28;20037;-74
2022/09/12 02:24:22;;;;;;;45.60;42.60;;;;;;;19.35;54.46;101504.34;5050914;28;20103;-72
2022/09/12 02:26:53;;;;;;;47.50;43.97;;;;;;;19.33;54.34;101512.88;5034918;28;20064;-72
2022/09/12 02:29:19;;;;;;;47.58;44.38;;;;;;;19.31;54.80;101504.13;5033551;28;20065;-74
2022/09/12 02:32:07;;;;;;;45.92;42.92;;;;;;;19.30;54.54;101502.47;5051381;28;20512;-75
2022/09/12 02:34:54;;;;;;;43.58;40.88;;;;;;;19.29;54.50;101502.75;5051349;28;20108;-73
2022/09/12 02:37:26;;;;;;;45.08;42.08;;;;;;;19.26;54.61;101493.19;5053372;28;20028;-72
2022/09/12 02:39:53;;;;;;;44.90;42.00;;;;;;;19.26;54.65;101495.13;5050549;28;20481;-77
2022/09/12 02:42:19;;;;;;;45.95;43.00;;;;;;;19.24;54.58;101498.94;5049743;28;20465;-72
2022/09/12 02:44:45;;;;;;;46.90;43.78;;;;;;;19.23;54.45;101501.97;5050559;28;20087;-73
2022/09/12 02:47:20;;;;;;;45.33;42.40;;;;;;;19.22;54.73;101492.09;5033637;28;20040;-73
2022/09/12 02:49:46;;;;;;;44.67;41.35;;;;;;;19.20;54.59;101488.81;5052184;28;20084;-72
2022/09/12 02:52:11;;;;;;;46.20;43.00;;;;;;;19.19;54.73;101493.50;5049670;28;20037;-72
2022/09/12 02:54:37;;;;;;;44.38;41.22;;;;;;;19.16;54.44;101488.59;5037651;28;20061;-73
2022/09/12 02:57:13;;;;;;;45.70;42.60;;;;;;;19.15;54.86;101488.84;5031775;28;20729;-72
2022/09/12 02:59:39;;;;;;;44.78;41.70;;;;;;;19.14;54.65;101487.22;5039659;28;20037;-72
2022/09/12 03:02:35;;;;;;;46.70;43.55;;;;;;;19.13;54.80;101482.88;5050402;28;20045;-75
2022/09/12 03:05:07;;;;;;;44.92;41.88;;;;;;;19.10;54.69;101483.41;5047372;28;20295;-72
2022/09/12 03:07:57;;;;;;;46.72;43.30;;;;;;;19.09;54.46;101482.59;5048004;28;20033;-72
2022/09/12 03:10:31;;;;;;;43.58;40.60;;;;;;;19.07;54.58;101476.56;5032401;28;20052;-73
2022/09/12 03:13:21;;;;;;;46.20;43.33;;;;;;;19.06;54.74;101476.88;5031944;28;20041;-75
2022/09/12 03:16:02;;;;;;;44.55;41.45;;;;;;;19.03;54.35;101476.34;5056071;28;20040;-73
2022/09/12 03:18:49;;;;;;;40.75;37.75;;;;;;;19.01;54.38;101467.56;5055242;28;20033;-73
2022/09/12 03:21:17;;;;;;;44.30;41.28;;;;;;;19.00;54.63;101473.34;5049402;28;20354;-77
2022/09/12 03:23:54;;;;;;;41.25;38.45;;;;;;;18.98;54.75;101473.63;5049834;28;20028;-73
2022/09/12 03:26:31;;;;;;;43.30;40.30;;;;;;;18.97;55.00;101473.88;5049583;28;20036;-74
2022/09/12 03:28:58;;;;;;;41.80;39.00;;;;;;;18.96;54.69;101477.75;5050136;28;20400;-74
2022/09/12 03:31:24;;;;;;;41.70;38.80;;;;;;;18.95;54.47;101470.63;5051220;28;20128;-73
2022/09/12 03:33:50;;;;;;;42.85;39.63;;;;;;;18.93;54.73;101470.91;5044849;28;20541;-72
2022/09/12 03:36:21;;;;;;;41.67;38.55;;;;;;;18.92;54.83;101461.03;5014066;28;20045;-75
2022/09/12 03:38:46;;;;;;;44.53;41.33;;;;;;;18.91;54.72;101470.38;5031768;28;20030;-73
2022/09/12 03:41:12;;;;;;;42.72;39.92;;;;;;;18.88;54.59;101468.19;5063484;28;20037;-73
2022/09/12 03:43:37;;;;;;;42.75;39.53;;;;;;;18.88;54.90;101465.47;5048542;28;20040;-72
2022/09/12 03:46:03;;;;;;;45.50;42.40;;;;;;;18.86;54.91;101464.91;5052491;28;20551;-73
2022/09/12 03:48:30;;;;;;;44.72;41.65;;;;;;;18.85;54.45;101460.56;5053083;28;20524;-72
2022/09/12 03:50:59;;;;;;;44.15;41.03;;;;;;;18.84;54.70;101456.16;5051177;28;20029;-73
2022/09/12 03:53:24;;;;;;;;;;;;;;;18.83;54.35;101451.00;5033226;28;20033;-74
2022/09/12 03:55:49;;;;;;;42.08;39.03;;;;;;;18.80;54.82;101447.72;5032950;28;19919;-74
2022/09/12 03:58:15;;;;;;;44.45;41.22;;;;;;;18.78;54.59;101452.63;5050893;28;20033;-73
2022/09/12 04:00:41;;;;;;;42.92;39.88;;;;;;;18.77;54.72;101448.28;5051234;28;20075;-73
2022/09/12 04:03:07;;;;;;;43.85;40.90;;;;;;;18.77;54.55;101447.44;5044481;28;20489;-76
2022/09/12 04:05:34;;;;;;;42.17;39.38;;;;;;;18.75;54.71;101449.63;5031730;28;20048;-73
2022/09/12 04:07:59;;;;;;;44.38;41.30;;;;;;;18.74;54.63;101437.03;5031670;28;20048;-75
2022/09/12 04:10:25;;;;;;;43.22;39.85;;;;;;;18.73;54.56;101427.19;5038398;28;20025;-73
2022/09/12 04:12:50;;;;;;;43.80;40.47;;;;;;;18.71;54.55;101427.44;5054051;28;20029;-72
2022/09/12 04:15:16;;;;;;;46.38;43.15;;;;;;;18.71;54.87;101432.13;5036936;28;20556;-73
2022/09/12 04:17:41;;;;;;;43.13;40.10;;;;;;;18.69;54.85;101439.78;5054353;28;20116;-73
2022/09/12 04:20:07;;;;;;;45.35;42.03;;;;;;;18.67;54.91;101434.59;5054657;28;20041;-73
2022/09/12 04:22:32;;;;;;;42.50;39.65;;;;;;;18.66;54.96;101435.69;5040691;28;20111;-73
2022/09/12 04:24:58;;;;;;;42.85;39.67;;;;;;;18.66;54.70;101434.88;5034237;28;20041;-72
2022/09/12 04:27:23;;;;;;;43.80;40.85;;;;;;;18.64;54.66;101429.66;5036295;28;20099;-72
2022/09/12 04:29:48;;;;;;;44.10;40.97;;;;;;;18.63;54.69;101429.97;5057851;28;20030;-72
2022/09/12 04:32:14;;;;;;;42.78;39.78;;;;;;;18.63;54.93;101429.97;5046360;28;20045;-71
2022/09/12 04:34:39;;;;;;;43.78;40.85;;;;;;;18.60;54.79;101423.94;5053577;28;20037;-72
2022/09/12 04:37:04;;;;;;;42.25;39.22;;;;;;;18.60;54.89;101431.34;5034070;28;20099;-71
2022/09/12 04:39:30;;;;;;;41.63;38.17;;;;;;;18.58;54.76;101431.63;5035122;28;20033;-73
2022/09/12 04:41:55;;;;;;;43.88;40.72;;;;;;;18.57;54.52;101430.00;5040902;28;20041;-73
2022/09/12 04:44:21;;;;;;;42.78;39.80;;;;;;;18.56;54.67;101425.59;5052478;28;20539;-72
2022/09/12 04:46:47;;;;;;;44.90;41.53;;;;;;;18.55;54.91;101423.16;5053780;28;20029;-74
2022/09/12 04:49:18;;;;;;;45.00;41.40;;;;;;;18.54;54.64;101427.78;5052903;28;20377;-72
2022/09/12 04:51:44;;;;;;;46.08;42.95;;;;;;;18.52;54.64;101426.44;5053401;28;20131;-72
2022/09/12 04:54:12;;;;;;;42.55;39.65;;;;;;;18.52;55.08;101423.69;5052152;28;20554;-72
2022/09/12 04:56:39;;;;;;;42.97;39.67;;;;;;;18.50;55.11;101425.91;5044243;28;20030;-72
2022/09/12 04:59:05;;;;;;;43.42;40.13;;;;;;;18.49;54.95;101425.06;5034590;28;20112;-75
2022/09/12 05:01:31;;;;;;;44.33;40.92;;;;;;;18.47;54.90;101429.19;5034669;28;20061;-73
2022/09/12 05:03:58;;;;;;;41.97;39.15;;;;;;;18.46;54.87;101422.09;5046384;28;20110;-73
2022/09/12 05:06:27;;;;;;;42.47;39.25;;;;;;;18.45;55.02;101423.19;5034243;28;20366;-72
2022/09/12 05:08:52;;;;;;;42.38;39.47;;;;;;;18.44;54.71;101427.81;5042388;28;20116;-72
2022/09/12 05:11:20;;;;;;;46.08;42.88;;;;;;;18.43;55.07;101420.72;5043524;28;20033;-72
2022/09/12 05:13:46;;;;;;;43.03;39.93;;;;;;;18.43;55.03;101430.84;5040708;28;20049;-73
2022/09/12 05:16:14;;;;;;;44.20;41.05;;;;;;;18.40;54.72;101421.28;5034070;28;20323;-72
2022/09/12 05:18:39;;;;;;;40.97;37.97;;;;;;;18.39;55.07;101427.84;5036033;28;20532;-73
2022/09/12 05:21:08;;;;;;;42.72;39.38;;;;;;;18.39;55.16;101436.06;5040748;28;20324;-72
2022/09/12 05:23:34;;;;;;;38.80;36.08;;;;;;;18.38;54.73;101431.69;5051723;28;20176;-74
2022/09/12 05:26:00;;;;;;;43.72;40.28;;;;;;;18.36;54.95;101431.94;5040377;28;20031;-71
2022/09/12 05:28:34;;;;;;;45.33;42.03;;;;;;;18.36;54.81;101428.41;5051479;28;20071;-72
2022/09/12 05:31:02;;;;;;;41.85;38.85;;;;;;;18.33;54.99;101427.03;5040813;28;20030;-71
2022/09/12 05:33:28;;;;;;;40.70;37.72;;;;;;;18.33;55.01;101431.69;5033745;28;20655;-73
2022/09/12 05:35:53;;;;;;;44.65;41.63;;;;;;;18.31;55.29;101429.25;5049653;28;20270;-75
2022/09/12 05:38:19;;;;;;;45.00;41.60;;;;;;;18.31;55.24;101433.91;5041333;28;20030;-71
2022/09/12 05:40:44;;;;;;;43.50;39.58;;;;;;;18.29;55.27;101442.38;5038616;28;20040;-72
2022/09/12 05:43:11;;;;;;;40.95;38.05;;;;;;;18.28;55.33;101438.00;5039280;28;20034;-72
2022/09/12 05:45:37;;;;;;;42.50;39.53;;;;;;;18.27;55.07;101433.66;5052365;28;20466;-71
2022/09/12 05:48:03;;;;;;;43.13;39.92;;;;;;;18.27;55.43;101438.28;5040225;28;20041;-75
2022/09/12 05:50:28;;;;;;;43.53;40.22;;;;;;;18.26;55.02;101444.84;5051974;28;20424;-72
2022/09/12 05:52:53;;;;;;;40.75;37.75;;;;;;;18.25;55.13;101443.22;5052574;28;20123;-71
2022/09/12 05:55:19;;;;;;;43.08;39.95;;;;;;;18.24;55.18;101441.56;5050627;28;20028;-72
2022/09/12 05:57:45;;;;;;;41.20;38.28;;;;;;;18.23;55.13;101451.69;5046895;28;20408;-72
2022/09/12 06:00:13;;;;;;;43.53;40.42;;;;;;;18.22;55.00;101450.06;5034974;28;20037;-74
2022/09/12 06:02:38;;;;;;;40.58;37.85;;;;;;;18.21;55.07;101450.31;5053013;28;20119;-72
2022/09/12 06:05:04;;;;;;;42.22;39.22;;;;;;;18.20;55.08;101451.44;5068442;28;20549;-72
2022/09/12 06:07:31;;;;;;;40.72;37.83;;;;;;;18.17;55.46;101453.63;5048093;28;20033;-73
2022/09/12 06:09:58;;;;;;;43.03;39.75;;;;;;;18.18;55.22;101440.75;5035447;28;20041;-74
2022/09/12 06:12:25;;;;;;;43.40;39.95;;;;;;;18.16;55.57;101443.75;5050688;28;20033;-74
2022/09/12 06:14:51;;;;;;;42.30;38.85;;;;;;;18.15;55.40;101447.59;5064952;28;20033;-73
2022/09/12 06:17:17;;;;;;;44.75;41.28;;;;;;;18.14;55.18;101443.25;5032545;28;20448;-73
2022/09/12 06:19:43;;;;;;;45.00;41.50;;;;;;;18.14;55.11;101440.50;5046396;28;20039;-72
2022/09/12 06:22:09;;;;;;;42.17;39.30;;;;;;;18.13;55.22;101438.84;5032917;28;20041;-73
2022/09/12 06:24:34;;;;;;;44.28;41.08;;;;;;;18.12;55.11;101439.97;5075508;28;20060;-74
2022/09/12 06:27:01;;;;;;;43.80;40.60;;;;;;;18.11;55.64;101438.31;5048322;28;20394;-73
2022/09/12 06:29:27;;;;;;;46.95;43.28;;;;;;;18.11;55.35;101440.22;5047811;28;20232;-73
2022/09/12 06:31:52;;;;;;;45.15;41.80;;;;;;;18.09;55.27;101440.53;5031339;28;20288;-72
2022/09/12 06:34:18;;;;;;;44.72;41.40;;;;;;;18.09;55.46;101434.22;5048027;28;20040;-75
2022/09/12 06:36:46;;;;;;;45.30;41.63;;;;;;;18.08;55.23;101433.41;5046862;28;20045;-72
2022/09/12 06:39:17;;;;;;;45.92;42.53;;;;;;;18.07;55.51;101437.25;5045296;28;20030;-73
2022/09/12 06:41:44;;;;;;;42.50;39.33;;;;;;;18.07;55.49;101434.50;5048957;28;20033;-73
2022/09/12 06:44:20;;;;;;;44.20;40.90;;;;;;;18.06;55.44;101441.06;5048633;28;20079;-73
2022/09/12 06:46:46;;;;;;;42.00;38.97;;;;;;;18.05;55.30;101438.59;5048178;28;20827;-74
2022/09/12 06:49:12;;;;;;;44.50;41.03;;;;;;;18.03;55.43;101433.41;5048392;28;20176;-72
2022/09/12 06:51:37;;;;;;;42.92;39.85;;;;;;;18.03;55.67;101436.13;5045951;28;20037;-77
2022/09/12 06:54:04;;;;;;;42.17;38.67;;;;;;;18.03;55.37;101438.06;5046928;28;20472;-73
2022/09/12 06:56:30;;;;;;;43.35;40.33;;;;;;;18.02;55.44;101439.16;5048388;28;20036;-72
2022/09/12 06:58:57;;;;;;;43.47;40.22;;;;;;;18.01;55.64;101443.78;5046121;28;20045;-72
2022/09/12 07:01:28;;;;;;;44.67;41.33;;;;;;;18.01;55.79;101440.25;5046445;28;20123;-71
2022/09/12 07:04:02;;;;;;;44.50;41.15;;;;;;;18.00;55.50;101446.81;5048508;28;20182;-73
2022/09/12 07:06:46;;;;;;;44.65;41.28;;;;;;;17.99;55.94;101445.97;5048462;28;20048;-72
2022/09/12 07:09:16;;;;;;;42.78;39.65;;;;;;;17.98;55.50;101441.63;5048597;28;20067;-70
2022/09/12 07:11:43;;;;;;;44.03;40.60;;;;;;;17.96;55.71;101435.59;5046644;28;20041;-71
2022/09/12 07:14:11;;;;;;;44.33;40.63;;;;;;;17.97;56.00;101434.53;5049217;28;20033;-73
2022/09/12 07:16:37;;;;;;;45.17;41.78;;;;;;;17.98;55.93;101433.41;5046872;28;20135;-72
2022/09/12 07:19:04;;;;;;;46.00;42.42;;;;;;;17.97;55.94;101429.06;5050232;28;20136;-73
2022/09/12 07:21:30;;;;;;;44.22;40.85;;;;;;;17.97;56.26;101426.31;5046103;28;20123;-72
2022/09/12 07:23:59;;;;;;;41.78;38.78;;;;;;;17.97;55.94;101426.31;5046285;28;20425;-72
2022/09/12 07:26:27;;;;;;;44.15;40.97;;;;;;;17.99;56.13;101426.03;5043801;28;20040;-73
2022/09/12 07:28:55;;;;;;;43.08;39.85;;;;;;;17.99;56.24;101420.56;5043128;28;20039;-71
2022/09/12 07:31:25;;;;;;;45.47;41.85;;;;;;;17.99;56.20;101424.09;5042247;28;20031;-76
2022/09/12 07:33:51;;;;;;;43.75;39.78;;;;;;;17.99;56.54;101418.63;5047742;28;20032;-72
2022/09/12 07:36:20;;;;;;;45.45;41.97;;;;;;;18.00;56.33;101435.88;5039636;28;20029;-73
2022/09/12 07:38:46;;;;;;;44.67;41.08;;;;;;;18.00;56.45;101427.69;5045142;28;20052;-72
2022/09/12 07:41:22;;;;;;;44.63;41.13;;;;;;;18.01;56.51;101437.50;5043319;28;20051;-72
2022/09/12 07:43:52;;;;;;;43.13;39.83;;;;;;;18.00;57.20;101428.50;5040150;28;20047;-77
2022/09/12 07:46:17;;;;;;;42.78;39.58;;;;;;;18.01;56.95;101429.31;5046356;28;20060;-72
2022/09/12 07:48:44;;;;;;;46.53;42.97;;;;;;;18.01;56.88;101435.59;5042808;28;20465;-72
2022/09/12 07:51:10;;;;;;;43.67;40.20;;;;;;;18.01;57.50;101432.84;5025992;28;20108;-71
2022/09/12 07:53:39;;;;;;;45.83;42.25;;;;;;;18.02;57.09;101434.50;5044930;28;20124;-71
2022/09/12 07:56:06;;;;;;;44.85;41.33;;;;;;;18.04;57.26;101431.47;5043727;28;20041;-72
2022/09/12 07:58:34;;;;;;;47.50;43.40;;;;;;;18.06;57.65;101432.84;5040978;28;20029;-73
2022/09/12 08:01:04;;;;;;;47.40;43.13;;;;;;;18.08;57.80;101429.84;5045002;28;20039;-72
2022/09/12 08:03:30;;;;;;;47.13;43.25;;;;;;;18.09;57.90;101437.78;5045009;28;20108;-72
2022/09/12 08:06:03;;;;;;;46.15;42.70;;;;;;;18.11;58.16;101435.56;5025709;28;20458;-73
2022/09/12 08:08:28;;;;;;;46.00;42.25;;;;;;;18.14;58.04;101431.47;5075292;28;20393;-71
2022/09/12 08:10:58;;;;;;;47.45;43.88;;;;;;;18.15;58.37;101435.84;5046751;28;20037;-74
2022/09/12 08:13:24;;;;;;;45.92;42.30;;;;;;;18.17;58.41;101439.94;5045849;28;20124;-72
2022/09/12 08:15:49;;;;;;;44.97;41.33;;;;;;;18.20;58.65;101444.03;5042018;28;20288;-73
2022/09/12 08:18:15;;;;;;;47.28;43.47;;;;;;;18.22;58.50;101444.59;5044764;28;20045;-77
2022/09/12 08:20:40;;;;;;;48.63;44.28;;;;;;;18.25;58.55;101449.50;5044971;28;20051;-73
2022/09/12 08:23:06;;;;;;;45.65;42.15;;;;;;;18.28;58.57;101448.94;5049499;28;20071;-72
2022/09/12 08:25:33;;;;;;;49.08;44.92;;;;;;;18.32;58.89;101447.31;5045619;28;20118;-74
2022/09/12 08:28:00;;;;;;;47.15;43.45;;;;;;;18.36;58.90;101453.03;5043023;28;20045;-73
2022/09/12 08:30:26;;;;;;;45.13;41.58;;;;;;;18.41;59.12;101449.47;5043581;28;20044;-71
2022/09/12 08:32:52;;;;;;;44.58;40.80;;;;;;;18.45;58.76;101439.63;5049103;28;20125;-70
2022/09/12 08:35:17;;;;;;;44.42;41.08;;;;;;;18.49;59.16;101443.41;5042004;28;20029;-71
2022/09/12 08:37:43;;;;;;;44.67;41.42;;;;;;;18.54;58.88;101444.19;5048296;28;20080;-71
2022/09/12 08:40:15;;;;;;;46.70;43.28;;;;;;;18.59;59.05;101443.38;5042885;28;20033;-72
2022/09/12 08:42:58;;;;;;;46.72;42.70;;;;;;;18.64;59.46;101448.00;5048999;28;20047;-71
2022/09/12 08:45:39;;;;;;;47.70;43.85;;;;;;;18.70;59.80;101444.16;5042615;28;20033;-75
2022/09/12 08:48:09;;;;;;;45.47;42.17;;;;;;;18.73;59.60;101441.69;5048033;28;20071;-76
2022/09/12 08:50:34;;;;;;;43.75;40.50;;;;;;;18.78;59.76;101438.94;5048454;28;20530;-75
2022/09/12 08:53:08;;;;;;;46.38;42.95;;;;;;;18.82;59.49;101439.19;5047876;28;20033;-72
2022/09/12 08:56:04;;;;;;;44.28;40.80;;;;;;;18.89;60.02;101441.63;5041478;28;20065;-72
2022/09/12 08:58:38;;;;;;;43.83;40.72;;;;;;;18.92;59.88;101432.84;5032084;28;20036;-71
2022/09/12 09:01:22;;;;;;;45.53;41.92;;;;;;;18.97;60.71;101438.31;5048141;28;20032;-73
2022/09/12 09:04:26;;;;;;;46.28;42.92;;;;;;;19.00;60.96;101435.84;5051131;28;20033;-71
2022/09/12 09:07:01;;;;;;;43.63;40.47;;;;;;;19.03;60.04;101429.78;5047268;28;20041;-72
2022/09/12 09:10:18;;;;;;;44.47;41.30;;;;;;;19.09;60.35;101430.56;5050847;28;20028;-72
2022/09/12 09:14:46;;;;;;;45.50;42.40;;;;;;;19.14;60.41;101426.97;5019462;28;20396;-72
2022/09/12 09:16:14;;;;;;;45.80;42.50;;;;;;;19.18;60.21;101414.38;5048919;28;20102;-71
2022/09/12 09:18:43;;;;;;;45.42;42.42;;;;;;;19.22;59.93;101423.63;5047554;28;20021;-72
2022/09/12 09:21:29;;;;;;;44.90;41.90;;;;;;;19.28;60.26;101425.25;5046908;28;20389;-71
2022/09/12 09:24:09;;;;;;;44.08;41.20;;;;;;;19.32;60.09;101422.75;5049704;28;20040;-73
2022/09/12 09:26:48;;;;;;;46.03;42.90;;;;;;;19.38;60.20;101419.69;5051456;28;20067;-72
2022/09/12 09:29:17;;;;;;;44.72;41.92;;;;;;;19.42;59.77;101414.47;5044270;28;20041;-72
2022/09/12 09:31:53;;;;;;;45.08;42.25;;;;;;;19.46;59.73;101405.38;5051838;28;20041;-72
2022/09/12 09:34:20;;;;;;;44.35;41.45;;;;;;;19.52;60.00;101414.38;5042398;28;20116;-74
2022/09/12 09:37:01;;;;;;;44.40;41.70;;;;;;;19.57;59.24;101408.03;5049620;28;20025;-70
2022/09/12 09:39:53;;;;;;;44.38;41.53;;;;;;;19.62;59.73;101406.06;5047856;28;20037;-72
2022/09/12 09:42:27;;;;;;;41.38;39.05;;;;;;;19.67;59.11;101407.97;5050985;28;20040;-72
2022/09/12 09:44:58;;;;;;;43.63;40.60;;;;;;;19.73;59.04;101408.75;5049404;28;20032;-72
2022/09/12 09:47:23;;;;;;;46.08;42.70;;;;;;;19.76;58.93;101400.78;5047399;28;20495;-73
2022/09/12 09:49:48;;;;;;;44.53;41.92;;;;;;;19.81;59.13;101400.72;5045800;28;20365;-77
2022/09/12 09:52:16;;;;;;;46.20;43.30;;;;;;;19.86;58.97;101392.47;5049941;28;20090;-72
2022/09/12 09:54:52;;;;;;;46.13;43.10;;;;;;;19.91;58.91;101388.84;5049834;28;20062;-72
2022/09/12 09:57:51;;;;;;;43.67;41.17;;;;;;;19.96;58.75;101391.53;5048859;28;20116;-71
2022/09/12 10:00:36;;;;;;;45.65;42.95;;;;;;;20.01;59.32;101387.94;5004631;28;20045;-72
2022/09/12 10:03:08;;;;;;;45.90;42.95;;;;;;;20.05;59.01;101386.22;5054923;28;20388;-83
2022/09/12 10:05:46;;;;;;;47.00;44.03;;;;;;;20.11;58.66;101382.34;5047746;28;20400;-74
2022/09/12 10:08:39;;;;;;;;;;;;;;;20.14;58.81;101381.75;5045726;28;20111;-72
2022/09/12 10:11:16;;;;;;;43.22;40.85;;;;;;;20.20;58.24;101385.25;5041204;28;19939;-75
2022/09/12 10:13:56;;;;;;;47.05;44.28;;;;;;;20.25;58.29;101387.94;5048741;28;20045;-71
2022/09/12 10:16:29;;;;;;;46.65;43.78;;;;;;;20.29;58.77;101370.59;5049171;28;20043;-74
2022/09/12 10:18:58;;;;;;;46.40;43.70;;;;;;;20.34;58.09;101377.13;5045618;28;20037;-69
2022/09/12 10:21:28;;;;;;;44.88;42.38;;;;;;;20.37;58.22;101369.13;5049045;28;20525;-72
2022/09/12 10:24:15;;;;;;;46.80;43.85;;;;;;;20.42;58.44;101360.03;5047442;28;20028;-76
2022/09/12 10:26:41;;;;;;;44.13;41.42;;;;;;;20.47;58.02;101359.94;5046828;28;20029;-73
2022/09/12 10:29:17;;;;;;;46.72;44.03;;;;;;;20.52;58.29;101359.88;5047395;28;20389;-72
2022/09/12 10:31:50;;;;;;;47.67;44.75;;;;;;;20.56;57.76;101346.41;5047729;28;20068;-72
2022/09/12 10:34:24;;;;;;;42.97;40.50;;;;;;;20.60;58.07;101345.53;5044018;28;20033;-72
2022/09/12 10:36:53;;;;;;;46.53;44.00;;;;;;;20.64;58.20;101351.25;5048964;28;20037;-72
2022/09/12 10:39:18;;;;;;;;;;;;;;;20.68;57.68;101338.56;5048889;28;20037;-73
2022/09/12 10:41:45;;;;;;;46.03;42.97;;;;;;;20.72;57.44;101334.94;5046551;28;19927;-73
2022/09/12 10:44:26;;;;;;;45.72;42.65;;;;;;;20.74;58.07;101329.97;5047628;28;20037;-73
2022/09/12 10:46:53;;;;;;;47.58;44.45;;;;;;;20.79;57.36;101323.59;5051137;28;20468;-74
2022/09/12 10:49:24;;;;;;;47.40;44.33;;;;;;;20.84;57.40;101326.25;5045411;28;20116;-72
2022/09/12 10:51:52;;;;;;;48.30;45.50;;;;;;;20.88;57.72;101320.97;5046484;28;20523;-73
2022/09/12 10:54:20;;;;;;;45.58;42.95;;;;;;;20.92;57.57;101330.25;5047906;28;20037;-72
2022/09/12 10:57:19;;;;;;;49.17;46.37;;;;;;;20.96;57.58;101320.28;5048351;28;20064;-73
2022/09/12 11:00:16;;;;;;;46.00;43.38;;;;;;;21.00;56.92;101326.81;5047037;28;20295;-72
2022/09/12 11:02:57;;;;;;;48.75;46.10;;;;;;;21.04;57.32;101313.28;5046299;28;20116;-73
2022/09/12 11:05:36;;;;;;;46.63;43.83;;;;;;;21.08;57.04;101314.34;5046686;28;20041;-73
2022/09/12 11:08:23;;;;;;;46.38;43.88;;;;;;;21.11;57.07;101322.78;5051117;28;20528;-72
2022/09/12 11:10:58;;;;;;;47.65;44.95;;;;;;;21.15;56.73;101309.28;5041318;28;20120;-73
2022/09/12 11:13:58;;;;;;;45.28;42.85;;;;;;;21.20;56.83;101308.38;5049017;28;20029;-73
2022/09/12 11:17:01;;;;;;;47.17;44.45;;;;;;;21.23;56.35;101308.59;5044924;28;20021;-73
2022/09/12 11:19:53;;;;;;;48.45;45.65;;;;;;;21.27;56.23;101304.13;5045178;28;20422;-73
2022/09/12 11:22:37;;;;;;;47.10;44.60;;;;;;;21.31;56.80;101301.59;5044790;28;20135;-73
2022/09/12 11:25:40;;;;;;;47.00;44.60;;;;;;;21.34;56.09;101292.72;5045712;28;20045;-73
2022/09/12 11:28:24;;;;;;;48.67;46.17;;;;;;;21.38;56.39;101299.28;5048009;28;20492;-74
2022/09/12 11:31:07;;;;;;;47.28;44.85;;;;;;;21.41;55.57;101298.69;5044500;28;20036;-72
2022/09/12 11:33:51;;;;;;;48.10;45.60;;;;;;;21.45;55.64;101298.91;5044687;28;20155;-73